createdAt,value
2023-06-13T00:00:21.661Z,1.80
2023-06-13T00:03:15.079Z,2.00
2023-06-13T00:05:46.976Z,2.30
2023-06-13T00:08:19.728Z,2.40
2023-06-13T00:10:49.381Z,1.90
2023-06-13T00:13:19.485Z,2.30
2023-06-13T00:15:54.056Z,2.20
2023-06-13T00:18:24.238Z,2.30
2023-06-13T00:20:56.404Z,2.50
2023-06-13T00:23:25.594Z,2.70
2023-06-13T00:25:55.254Z,2.10
2023-06-13T00:28:24.400Z,2.20
2023-06-13T00:30:54.167Z,2.40
2023-06-13T00:33:23.299Z,2.40
2023-06-13T00:35:52.415Z,2.10
2023-06-13T00:38:22.836Z,2.50
2023-06-13T00:40:52.826Z,2.80
2023-06-13T00:43:21.939Z,2.30
2023-06-13T00:45:51.355Z,2.90
2023-06-13T00:48:20.363Z,2.30
2023-06-13T00:50:50.363Z,3.00
2023-06-13T00:53:21.178Z,2.60
2023-06-13T00:55:51.740Z,2.60
2023-06-13T00:58:21.378Z,1.90
2023-06-13T01:00:50.990Z,2.70
2023-06-13T01:03:20.767Z,2.30
2023-06-13T01:05:49.757Z,2.60
2023-06-13T01:08:24.372Z,2.40
2023-06-13T01:11:25.500Z,2.10
2023-06-13T01:14:05.141Z,2.20
2023-06-13T01:16:38.492Z,2.50
2023-06-13T01:19:20.536Z,2.30
2023-06-13T01:21:50.470Z,2.10
2023-06-13T01:25:04.168Z,2.10
2023-06-13T01:27:34.105Z,2.50
2023-06-13T01:30:04.387Z,2.50
2023-06-13T01:32:34.653Z,2.40
2023-06-13T01:35:04.456Z,2.30
2023-06-13T01:37:33.956Z,2.10
2023-06-13T01:40:06.732Z,2.30
2023-06-13T01:42:37.167Z,2.50
2023-06-13T01:45:07.502Z,2.50
2023-06-13T01:47:56.144Z,2.40
2023-06-13T01:50:50.553Z,2.00
2023-06-13T01:53:41.616Z,2.50
2023-06-13T01:56:13.859Z,2.00
2023-06-13T01:58:56.724Z,2.40
2023-06-13T02:01:27.768Z,2.10
2023-06-13T02:03:57.716Z,2.20
2023-06-13T02:06:28.712Z,2.30
2023-06-13T02:08:58.634Z,2.00
2023-06-13T02:11:28.754Z,2.50
2023-06-13T02:13:57.821Z,2.30
2023-06-13T02:16:30.965Z,2.80
2023-06-13T02:19:09.430Z,2.40
2023-06-13T02:21:38.420Z,2.50
2023-06-13T02:24:07.955Z,2.50
2023-06-13T02:26:41.942Z,2.20
2023-06-13T02:29:11.854Z,2.40
2023-06-13T02:31:43.224Z,2.50
2023-06-13T02:34:12.913Z,1.90
2023-06-13T02:36:42.110Z,1.90
2023-06-13T02:39:13.251Z,2.40
2023-06-13T02:41:44.599Z,2.30
2023-06-13T02:44:14.313Z,2.90
2023-06-13T02:46:43.493Z,2.70
2023-06-13T02:49:12.698Z,2.90
2023-06-13T02:51:41.887Z,2.50
2023-06-13T02:54:11.704Z,2.30
2023-06-13T02:56:40.983Z,2.20
2023-06-13T02:59:10.005Z,2.50
2023-06-13T03:01:39.708Z,2.20
2023-06-13T03:04:12.185Z,2.70
2023-06-13T03:06:42.854Z,2.10
2023-06-13T03:09:13.545Z,3.10
2023-06-13T03:11:45.928Z,2.50
2023-06-13T03:14:15.100Z,2.20
2023-06-13T03:16:44.254Z,2.60
2023-06-13T03:19:13.421Z,2.80
2023-06-13T03:21:43.204Z,2.60
2023-06-13T03:24:12.843Z,2.80
2023-06-13T03:26:42.336Z,2.10
2023-06-13T03:29:13.990Z,2.40
2023-06-13T03:31:43.784Z,2.60
2023-06-13T03:34:13.285Z,2.80
2023-06-13T03:36:45.185Z,2.60
2023-06-13T03:39:14.442Z,2.80
2023-06-13T03:41:43.426Z,3.20
2023-06-13T03:44:13.469Z,2.40
2023-06-13T03:46:42.994Z,3.10
2023-06-13T03:49:12.942Z,2.70
2023-06-13T03:51:43.538Z,4.00
2023-06-13T03:54:12.815Z,2.40
2023-06-13T03:56:41.986Z,3.40
2023-06-13T03:59:11.613Z,3.00
2023-06-13T04:01:42.939Z,3.40
2023-06-13T04:04:12.668Z,3.20
2023-06-13T04:06:43.000Z,3.10
2023-06-13T04:09:12.328Z,2.50
2023-06-13T04:11:41.682Z,2.20
2023-06-13T04:14:10.969Z,2.90
2023-06-13T04:16:40.191Z,2.50
2023-06-13T04:19:12.558Z,2.70
2023-06-13T04:21:42.360Z,3.20
2023-06-13T04:24:13.324Z,2.90
2023-06-13T04:26:43.267Z,7.70
2023-06-13T04:29:14.755Z,6.20
2023-06-13T04:31:45.139Z,3.10
2023-06-13T04:34:15.611Z,3.00
2023-06-13T04:36:45.842Z,3.80
2023-06-13T04:39:15.072Z,4.00
2023-06-13T04:41:45.261Z,3.10
2023-06-13T04:44:15.204Z,3.30
2023-06-13T04:46:45.140Z,2.60
2023-06-13T04:49:17.247Z,3.10
2023-06-13T04:51:46.860Z,3.90
2023-06-13T04:54:17.570Z,2.30
2023-06-13T04:56:47.401Z,2.50
2023-06-13T04:59:16.689Z,2.30
2023-06-13T05:01:49.493Z,3.00
2023-06-13T05:04:19.612Z,3.30
2023-06-13T05:06:48.835Z,3.40
2023-06-13T05:09:19.010Z,2.80
2023-06-13T05:11:48.531Z,2.90
2023-06-13T05:14:18.312Z,2.80
2023-06-13T05:16:49.198Z,2.90
2023-06-13T05:19:19.484Z,3.30
2023-06-13T05:21:48.799Z,3.10
2023-06-13T05:24:18.886Z,3.60
2023-06-13T05:26:48.209Z,2.60
2023-06-13T05:29:17.285Z,3.00
2023-06-13T05:31:47.191Z,2.80
2023-06-13T05:34:16.920Z,2.90
2023-06-13T05:36:47.192Z,4.00
2023-06-13T05:39:17.475Z,3.90
2023-06-13T05:41:46.765Z,4.60
2023-06-13T05:44:16.053Z,3.50
2023-06-13T05:46:45.242Z,4.30
2023-06-13T05:49:14.461Z,3.90
2023-06-13T05:51:43.636Z,3.90
2023-06-13T05:54:12.941Z,4.00
2023-06-13T05:56:42.237Z,4.20
2023-06-13T05:59:11.664Z,5.00
2023-06-13T06:01:42.291Z,3.30
2023-06-13T06:04:12.063Z,3.30
2023-06-13T06:06:41.297Z,4.20
2023-06-13T06:09:10.684Z,3.90
2023-06-13T06:11:39.774Z,2.10
2023-06-13T06:14:10.527Z,2.30
2023-06-13T06:16:41.115Z,2.70
2023-06-13T06:19:10.629Z,2.80
2023-06-13T06:21:40.053Z,2.40
2023-06-13T06:24:09.104Z,2.50
2023-06-13T06:26:39.411Z,2.60
2023-06-13T06:29:08.349Z,2.20
2023-06-13T06:31:37.667Z,2.80
2023-06-13T06:34:07.577Z,2.60
2023-06-13T06:36:37.076Z,2.60
2023-06-13T06:39:06.355Z,2.50
2023-06-13T06:41:35.478Z,3.10
2023-06-13T06:44:05.176Z,3.60
2023-06-13T06:46:34.578Z,6.00
2023-06-13T06:49:04.602Z,7.70
2023-06-13T06:51:33.907Z,4.30
2023-06-13T06:54:03.095Z,3.60
2023-06-13T06:56:32.179Z,3.30
2023-06-13T06:59:01.160Z,2.90
2023-06-13T07:01:30.477Z,3.20
2023-06-13T07:04:00.018Z,2.60
2023-06-13T07:06:29.391Z,2.70
2023-06-13T07:08:58.794Z,2.60
2023-06-13T07:11:29.095Z,2.80
2023-06-13T07:13:58.509Z,2.40
2023-06-13T07:16:27.935Z,2.20
2023-06-13T07:18:57.204Z,2.70
2023-06-13T07:21:27.417Z,2.60
2023-06-13T07:24:06.093Z,2.40
2023-06-13T07:26:37.873Z,2.00
2023-06-13T07:29:06.962Z,2.30
2023-06-13T07:31:36.177Z,2.50
2023-06-13T07:34:09.769Z,2.80
2023-06-13T07:36:46.104Z,2.80
2023-06-13T07:39:15.643Z,3.10
2023-06-13T07:41:48.257Z,3.10
2023-06-13T07:44:17.675Z,3.00
2023-06-13T07:46:46.868Z,2.60
2023-06-13T07:49:16.165Z,2.40
2023-06-13T07:51:45.435Z,7.10
2023-06-13T07:54:14.722Z,3.50
2023-06-13T07:56:45.869Z,2.90
2023-06-13T07:59:14.978Z,3.40
2023-06-13T08:01:44.138Z,3.60
2023-06-13T08:04:13.398Z,3.10
2023-06-13T08:06:42.637Z,3.20
2023-06-13T08:09:13.328Z,3.40
2023-06-13T08:11:42.584Z,3.00
2023-06-13T08:14:14.860Z,3.40
2023-06-13T08:16:51.034Z,3.10
2023-06-13T08:19:20.723Z,4.00
2023-06-13T08:21:50.033Z,4.00
2023-06-13T08:24:19.385Z,3.90
2023-06-13T08:26:53.663Z,3.60
2023-06-13T08:29:25.199Z,3.40
2023-06-13T08:31:54.681Z,2.30
2023-06-13T08:34:24.091Z,4.00
2023-06-13T08:36:53.304Z,2.90
2023-06-13T08:39:22.404Z,4.00
2023-06-13T08:41:51.797Z,7.30
2023-06-13T08:44:20.843Z,4.80
2023-06-13T08:46:50.075Z,3.80
2023-06-13T08:49:19.313Z,3.20
2023-06-13T08:51:48.763Z,3.60
2023-06-13T08:54:17.955Z,4.50
2023-06-13T08:56:47.171Z,4.50
2023-06-13T08:59:18.734Z,4.30
2023-06-13T09:01:47.914Z,5.30
2023-06-13T09:04:18.043Z,5.80
2023-06-13T09:06:47.548Z,6.30
2023-06-13T09:09:18.315Z,4.80
2023-06-13T09:11:50.003Z,4.00
2023-06-13T09:14:22.216Z,4.60
2023-06-13T09:16:53.034Z,3.10
2023-06-13T09:19:22.384Z,4.20
2023-06-13T09:21:51.865Z,3.40
2023-06-13T09:24:21.623Z,3.80
2023-06-13T09:26:50.837Z,12.40
2023-06-13T09:29:27.114Z,27.60
2023-06-13T09:32:04.150Z,29.10
2023-06-13T09:34:35.209Z,36.90
2023-06-13T09:37:04.837Z,10.10
2023-06-13T09:39:34.021Z,4.10
2023-06-13T09:42:03.440Z,3.40
2023-06-13T09:47:31.038Z,3.00
2023-06-13T09:50:02.010Z,2.60
2023-06-13T09:52:34.316Z,2.90
2023-06-13T09:55:03.801Z,3.50
2023-06-13T09:57:48.426Z,2.80
2023-06-13T10:00:23.949Z,3.30
2023-06-13T10:02:54.588Z,4.00
2023-06-13T10:05:25.524Z,3.50
2023-06-13T10:07:55.012Z,3.80
2023-06-13T10:10:24.186Z,4.70
2023-06-13T10:12:57.483Z,4.00
2023-06-13T10:15:55.919Z,4.00
2023-06-13T10:18:29.308Z,3.30
2023-06-13T10:20:58.988Z,2.80
2023-06-13T10:23:33.665Z,3.80
2023-06-13T10:26:08.320Z,3.40
2023-06-13T10:28:52.897Z,3.60
2023-06-13T10:31:27.979Z,3.30
2023-06-13T10:34:20.458Z,3.30
2023-06-13T10:37:27.252Z,3.40
2023-06-13T10:40:09.450Z,3.50
2023-06-13T10:42:41.927Z,3.40
2023-06-13T10:45:25.298Z,3.90
2023-06-13T10:47:54.260Z,4.20
2023-06-13T10:50:23.936Z,3.50
2023-06-13T10:52:56.824Z,4.80
2023-06-13T10:55:27.503Z,5.10
2023-06-13T10:58:03.710Z,4.40
2023-06-13T11:03:09.104Z,8.20
2023-06-13T11:05:49.978Z,6.00
2023-06-13T11:08:24.440Z,6.30
2023-06-13T11:10:54.074Z,5.90
2023-06-13T11:13:27.918Z,5.60
2023-06-13T11:15:58.647Z,4.90
2023-06-13T11:18:31.357Z,5.20
2023-06-13T11:21:01.078Z,4.80
2023-06-13T11:23:40.065Z,4.60
2023-06-13T11:26:09.259Z,4.40
2023-06-13T11:28:38.509Z,3.90
2023-06-13T11:31:07.597Z,3.60
2023-06-13T11:33:40.671Z,3.80
2023-06-13T11:36:09.911Z,3.70
2023-06-13T11:38:39.922Z,3.70
2023-06-13T11:41:09.215Z,3.80
2023-06-13T11:43:38.434Z,4.50
2023-06-13T11:46:07.502Z,4.70
2023-06-13T11:48:51.276Z,5.10
2023-06-13T11:51:21.465Z,5.50
2023-06-13T11:54:02.628Z,5.90
2023-06-13T11:56:36.943Z,5.70
2023-06-13T11:59:21.706Z,5.40
2023-06-13T12:01:55.112Z,5.60
2023-06-13T12:04:25.341Z,5.50
2023-06-13T12:06:55.354Z,5.40
2023-06-13T12:09:24.739Z,4.90
2023-06-13T12:11:54.154Z,4.40
2023-06-13T12:14:25.078Z,6.10
2023-06-13T12:16:56.632Z,4.60
2023-06-13T12:19:25.941Z,4.30
2023-06-13T12:22:00.397Z,5.30
2023-06-13T12:24:29.798Z,5.70
2023-06-13T12:26:59.186Z,4.70
2023-06-13T12:29:30.107Z,4.90
2023-06-13T12:32:01.364Z,6.20
2023-06-13T12:34:36.642Z,4.70
2023-06-13T12:37:08.608Z,5.60
2023-06-13T12:39:37.844Z,4.40
2023-06-13T12:42:11.894Z,5.50
2023-06-13T12:44:41.244Z,5.40
2023-06-13T12:47:12.610Z,4.50
2023-06-13T12:49:41.682Z,3.70
2023-06-13T12:52:17.056Z,3.80
2023-06-13T12:54:46.255Z,4.00
2023-06-13T12:57:17.353Z,3.90
2023-06-13T12:59:54.179Z,4.50
2023-06-13T13:02:28.642Z,5.10
2023-06-13T13:05:01.993Z,4.90
2023-06-13T13:07:32.706Z,4.50
2023-06-13T13:10:01.824Z,5.30
2023-06-13T13:12:31.046Z,4.30
2023-06-13T13:15:01.844Z,4.20
2023-06-13T13:17:31.875Z,3.90
2023-06-13T13:20:01.237Z,4.40
2023-06-13T13:22:30.645Z,4.10
2023-06-13T13:24:59.842Z,3.90
2023-06-13T13:27:29.032Z,3.90
2023-06-13T13:29:59.979Z,3.50
2023-06-13T13:32:30.402Z,3.60
2023-06-13T13:34:59.410Z,4.10
2023-06-13T13:37:28.475Z,3.60
2023-06-13T13:39:58.301Z,3.70
2023-06-13T13:42:27.282Z,3.30
2023-06-13T13:44:57.010Z,3.00
2023-06-13T13:47:26.721Z,3.70
2023-06-13T13:49:59.105Z,4.20
2023-06-13T13:52:28.192Z,2.90
2023-06-13T13:54:57.422Z,3.20
2023-06-13T13:57:26.569Z,4.20
2023-06-13T13:59:57.364Z,3.30
2023-06-13T14:02:26.789Z,3.70
2023-06-13T14:04:56.079Z,3.10
2023-06-13T14:07:25.898Z,4.30
2023-06-13T14:09:55.095Z,2.90
2023-06-13T14:12:24.197Z,3.30
2023-06-13T14:14:53.590Z,3.00
2023-06-13T14:17:24.011Z,3.30
2023-06-13T14:19:53.964Z,3.00
2023-06-13T14:22:23.116Z,3.40
2023-06-13T14:24:52.328Z,4.70
2023-06-13T14:27:21.318Z,4.50
2023-06-13T14:29:54.546Z,3.60
2023-06-13T14:32:28.569Z,4.00
2023-06-13T14:34:57.608Z,3.70
2023-06-13T14:37:27.445Z,3.30
2023-06-13T14:39:56.928Z,3.60
2023-06-13T14:42:26.025Z,3.00
2023-06-13T14:44:55.106Z,3.50
2023-06-13T14:47:24.059Z,4.80
2023-06-13T14:49:53.204Z,30.80
2023-06-13T14:52:22.736Z,9.90
2023-06-13T14:54:52.681Z,3.80
2023-06-13T14:57:22.132Z,3.70
2023-06-13T14:59:51.630Z,3.70
2023-06-13T15:02:20.860Z,2.80
2023-06-13T15:04:50.075Z,2.80
2023-06-13T15:07:19.323Z,2.40
2023-06-13T15:09:48.515Z,2.40
2023-06-13T15:12:18.538Z,3.30
2023-06-13T15:14:48.742Z,2.80
2023-06-13T15:17:18.145Z,3.00
2023-06-13T15:19:47.044Z,4.00
2023-06-13T15:22:16.343Z,1.90
2023-06-13T15:24:45.742Z,1.80
2023-06-13T15:27:15.669Z,2.10
2023-06-13T15:29:44.996Z,2.00
2023-06-13T15:32:18.961Z,1.60
2023-06-13T15:34:48.370Z,2.20
2023-06-13T15:37:18.497Z,1.70
2023-06-13T15:39:47.617Z,2.20
2023-06-13T15:42:16.686Z,1.60
2023-06-13T15:44:45.674Z,1.70
2023-06-13T15:47:14.927Z,2.00
2023-06-13T15:49:44.270Z,3.30
2023-06-13T15:52:13.265Z,3.00
2023-06-13T15:54:42.350Z,3.50
2023-06-13T15:57:12.884Z,2.60
2023-06-13T15:59:42.075Z,2.30
2023-06-13T16:02:11.161Z,2.10
2023-06-13T16:04:40.778Z,5.20
2023-06-13T16:07:12.865Z,3.60
2023-06-13T16:09:42.124Z,7.70
2023-06-13T16:12:12.151Z,3.00
2023-06-13T16:14:43.472Z,5.00
2023-06-13T16:17:12.503Z,7.80
2023-06-13T16:19:41.697Z,7.10
2023-06-13T16:22:11.106Z,2.80
2023-06-13T16:24:40.801Z,2.20
2023-06-13T16:27:10.972Z,1.80
2023-06-13T16:29:40.225Z,3.30
2023-06-13T16:32:10.252Z,2.00
2023-06-13T16:34:39.437Z,2.00
2023-06-13T16:37:09.020Z,1.70
2023-06-13T16:39:38.229Z,1.50
2023-06-13T16:42:09.094Z,2.80
2023-06-13T16:44:38.473Z,2.90
2023-06-13T16:47:09.644Z,1.50
2023-06-13T16:49:38.719Z,1.80
2023-06-13T16:52:09.177Z,1.30
2023-06-13T16:54:38.737Z,1.40
2023-06-13T16:57:08.854Z,1.70
2023-06-13T16:59:39.925Z,1.90
2023-06-13T17:02:09.145Z,2.30
2023-06-13T17:04:38.912Z,3.70
2023-06-13T17:07:08.712Z,2.40
2023-06-13T17:09:37.801Z,2.10
2023-06-13T17:12:10.233Z,3.70
2023-06-13T17:14:39.998Z,1.60
2023-06-13T17:17:09.489Z,2.40
2023-06-13T17:19:38.596Z,2.30
2023-06-13T17:22:07.819Z,2.60
2023-06-13T17:24:37.698Z,2.80
2023-06-13T17:27:07.423Z,1.80
2023-06-13T17:29:37.026Z,1.30
2023-06-13T17:32:06.367Z,1.70
2023-06-13T17:34:37.474Z,1.70
2023-06-13T17:37:07.380Z,2.20
2023-06-13T17:39:36.871Z,2.10
2023-06-13T17:42:06.967Z,2.90
2023-06-13T17:44:35.989Z,2.70
2023-06-13T17:47:07.771Z,2.60
2023-06-13T17:49:38.931Z,2.30
2023-06-13T17:52:08.901Z,2.00
2023-06-13T17:54:38.098Z,1.70
2023-06-13T17:57:08.149Z,2.10
2023-06-13T17:59:37.937Z,2.80
2023-06-13T18:02:07.518Z,2.20
2023-06-13T18:04:36.928Z,2.60
2023-06-13T18:07:06.381Z,2.40
2023-06-13T18:09:35.847Z,2.10
2023-06-13T18:12:19.969Z,2.30
2023-06-13T18:14:51.387Z,2.90
2023-06-13T18:17:21.246Z,2.90
2023-06-13T18:19:51.283Z,2.60
2023-06-13T18:22:21.386Z,2.20
2023-06-13T18:24:50.460Z,2.40
2023-06-13T18:27:19.986Z,2.40
2023-06-13T18:29:49.980Z,2.20
2023-06-13T18:32:19.704Z,2.10
2023-06-13T18:34:49.004Z,2.70
2023-06-13T18:37:19.221Z,2.00
2023-06-13T18:39:48.214Z,2.10
2023-06-13T18:42:18.332Z,2.20
2023-06-13T18:44:47.929Z,1.80
2023-06-13T18:47:17.043Z,1.80
2023-06-13T18:49:46.535Z,2.00
2023-06-13T18:52:16.344Z,1.50
2023-06-13T18:54:46.256Z,1.80
2023-06-13T18:57:16.862Z,2.40
2023-06-13T18:59:47.997Z,19.00
2023-06-13T19:02:18.988Z,12.10
2023-06-13T19:04:49.902Z,7.70
2023-06-13T19:07:20.741Z,9.80
2023-06-13T19:09:50.677Z,11.30
2023-06-13T19:12:23.617Z,15.00
2023-06-13T19:14:54.417Z,13.90
2023-06-13T19:17:23.430Z,14.40
2023-06-13T19:19:52.580Z,13.20
2023-06-13T19:22:22.168Z,10.70
2023-06-13T19:24:52.283Z,6.00
2023-06-13T19:27:23.420Z,5.10
2023-06-13T19:29:53.351Z,5.20
2023-06-13T19:32:23.384Z,4.90
2023-06-13T19:34:54.000Z,4.60
2023-06-13T19:37:24.527Z,3.80
2023-06-13T19:39:54.942Z,2.10
2023-06-13T19:42:24.156Z,2.50
2023-06-13T19:44:53.242Z,2.10
2023-06-13T19:47:23.713Z,2.20
2023-06-13T19:49:53.679Z,2.60
2023-06-13T19:52:23.990Z,3.30
2023-06-13T19:54:53.597Z,2.20
2023-06-13T19:57:23.886Z,2.30
2023-06-13T19:59:53.543Z,2.30
2023-06-13T20:02:22.818Z,2.50
2023-06-13T20:04:52.069Z,2.60
2023-06-13T20:07:22.065Z,2.70
2023-06-13T20:09:51.976Z,2.60
2023-06-13T20:12:21.058Z,2.90
2023-06-13T20:14:52.509Z,3.30
2023-06-13T20:17:22.872Z,2.80
2023-06-13T20:19:52.539Z,3.50
2023-06-13T20:22:21.629Z,3.40
2023-06-13T20:24:50.441Z,3.60
2023-06-13T20:27:21.117Z,3.60
2023-06-13T20:29:52.198Z,4.00
2023-06-13T20:32:24.804Z,3.20
2023-06-13T20:34:54.893Z,3.60
2023-06-13T20:37:24.290Z,2.90
2023-06-13T20:40:00.662Z,3.90
2023-06-13T20:42:33.416Z,3.90
2023-06-13T20:45:09.604Z,4.50
2023-06-13T20:47:39.410Z,4.80
2023-06-13T20:50:10.213Z,5.20
2023-06-13T20:52:40.337Z,4.90
2023-06-13T20:55:10.599Z,5.00
2023-06-13T20:57:40.174Z,5.00
2023-06-13T21:00:24.212Z,6.00
2023-06-13T21:02:54.528Z,5.00
2023-06-13T21:05:25.032Z,3.40
2023-06-13T21:07:54.575Z,3.40
2023-06-13T21:10:25.174Z,3.70
2023-06-13T21:13:00.989Z,3.00
2023-06-13T21:15:30.379Z,2.60
2023-06-13T21:18:00.307Z,3.00
2023-06-13T21:20:29.768Z,2.50
2023-06-13T21:22:58.895Z,2.70
2023-06-13T21:25:28.920Z,2.60
2023-06-13T21:27:58.909Z,2.40
2023-06-13T21:30:27.999Z,2.20
2023-06-13T21:32:57.179Z,2.80
2023-06-13T21:35:26.394Z,2.60
2023-06-13T21:37:57.105Z,2.80
2023-06-13T21:40:26.737Z,2.90
2023-06-13T21:42:55.826Z,3.80
2023-06-13T21:45:32.134Z,2.90
2023-06-13T21:48:03.110Z,2.60
2023-06-13T21:50:32.301Z,2.70
2023-06-13T21:53:01.419Z,3.40
2023-06-13T21:55:30.631Z,3.10
2023-06-13T21:57:59.733Z,3.00
2023-06-13T22:00:28.671Z,2.10
2023-06-13T22:02:58.092Z,2.70
2023-06-13T22:05:28.119Z,2.20
2023-06-13T22:07:58.758Z,2.40
2023-06-13T22:10:29.029Z,2.70
2023-06-13T22:12:58.375Z,3.30
2023-06-13T22:15:27.585Z,2.80
2023-06-13T22:17:58.506Z,2.50
2023-06-13T22:20:27.502Z,2.20
2023-06-13T22:22:59.456Z,2.70
2023-06-13T22:25:30.752Z,3.40
2023-06-13T22:27:59.670Z,2.60
2023-06-13T22:30:28.890Z,2.80
2023-06-13T22:32:57.882Z,2.30
2023-06-13T22:35:27.066Z,2.40
2023-06-13T22:37:56.277Z,2.40
2023-06-13T22:40:25.363Z,2.20
2023-06-13T22:42:54.461Z,2.90
2023-06-13T22:45:25.813Z,4.10
2023-06-13T22:48:03.038Z,3.30
2023-06-13T22:50:35.273Z,3.00
2023-06-13T22:53:04.564Z,3.40
2023-06-13T22:55:33.769Z,3.40
2023-06-13T22:58:02.865Z,2.80
2023-06-13T23:00:32.369Z,3.20
2023-06-13T23:03:03.562Z,3.80
2023-06-13T23:05:32.903Z,3.20
2023-06-13T23:08:02.313Z,3.90
2023-06-13T23:10:31.507Z,3.30
2023-06-13T23:13:00.496Z,3.70
2023-06-13T23:15:30.993Z,3.30
2023-06-13T23:18:00.375Z,3.40
2023-06-13T23:20:29.717Z,3.10
2023-06-13T23:23:00.658Z,4.30
2023-06-13T23:25:29.852Z,4.00
2023-06-13T23:28:02.681Z,4.50
2023-06-13T23:30:32.044Z,3.60
2023-06-13T23:33:02.099Z,3.70
2023-06-13T23:35:31.246Z,3.50
2023-06-13T23:38:01.187Z,3.80
2023-06-13T23:40:30.151Z,4.00
2023-06-13T23:43:00.389Z,4.40
2023-06-13T23:45:29.376Z,4.40
2023-06-13T23:47:58.401Z,3.70
2023-06-13T23:50:28.573Z,3.80
2023-06-13T23:52:57.781Z,3.80
2023-06-13T23:55:26.765Z,3.60
2023-06-13T23:57:56.062Z,4.50
